29 września 2022

Czas Kod Pogoda Temp. Widoczność Sufit Wiatr METAR/SPECI
06:51
M
10 °C 9 mi 2.300 ft 040° 040° 12 kt METAR CYTZ 291051Z AUTO 04012KT 9SM BKN023 OVC044 10/04 A3048 RMK SLP326
06:00
V
10 °C 9 mi 4.400 ft 050° 050° 9 kt METAR CYTZ 291000Z AUTO 05009KT 9SM FEW030 BKN044 10/04 A3047 RMK SLP321
05:00
V
11 °C 9 mi 4.200 ft 320° 320° 7 kt METAR CYTZ 290900Z AUTO 32007KT 270V360 9SM FEW030 OVC042 11/05 A3046 RMK SLP317
04:00
V
11 °C 9 mi 4.400 ft 320° 320° 7 kt METAR CYTZ 290800Z AUTO 32007KT 260V350 9SM SCT032 OVC044 11/06 A3045 RMK SLP315
03:00
V
11 °C 9 mi 4.200 ft 320° 320° 7 kt METAR CYTZ 290700Z AUTO 32007KT 280V350 9SM OVC042 11/05 A3045 RMK SLP314
02:00
V
11 °C 9 mi 4.300 ft 320° 320° 7 kt METAR CYTZ 290600Z AUTO 32007KT 280V350 9SM BKN043 11/05 A3044 RMK SLP310
01:00
V
12 °C 9 mi 4.300 ft 350° 350° 4 - 15 kt METAR CYTZ 290500Z AUTO 35004G15KT 300V360 9SM OVC043 12/05 A3044 RMK SLP310
00:00
V
12 °C 9 mi 4.100 ft 320° 320° 9 - 15 kt METAR CYTZ 290400Z AUTO 32009G15KT 9SM FEW030 OVC041 12/07 A3043 RMK SLP307

28 września 2022

Czas Kod Pogoda Temp. Widoczność Sufit Wiatr METAR/SPECI
23:00
V
12 °C 9 mi 4.100 ft 320° 320° 12 kt METAR CYTZ 290300Z AUTO 32012KT 9SM OVC041 12/07 A3041 RMK SLP302
22:00
V
12 °C 9 mi 4.100 ft 320° 320° 13 kt METAR CYTZ 290200Z AUTO 32013KT 9SM OVC041 12/07 A3039 RMK SLP296
21:00
V
13 °C 9 mi 3.900 ft 310° 310° 16 kt METAR CYTZ 290100Z AUTO 31016KT 9SM OVC039 13/08 A3038 RMK SLP290
20:00
V
13 °C 9 mi 3.700 ft 360° 360° 7 - 15 kt METAR CYTZ 290000Z AUTO 36007G15KT 290V060 9SM OVC037 13/06 A3036 RMK SLP285
19:00
V
13 °C 9 mi 3.700 ft 330° 330° 11 - 18 kt METAR CYTZ 282300Z AUTO 33011G18KT 9SM OVC037 13/06 A3034 RMK SLP278
18:00
V
13 °C 9 mi 3.300 ft 330° 330° 10 - 18 kt METAR CYTZ 282200Z AUTO 33010G18KT 9SM OVC033 13/07 A3033 RMK SLP273
17:00
M
13 °C 9 mi 2.900 ft 350° 350° 10 - 18 kt METAR CYTZ 282100Z AUTO 35010G18KT 310V020 9SM OVC029 13/07 A3032 RMK SLP271
16:00
V
13 °C 9 mi 3.100 ft 330° 330° 15 - 23 kt METAR CYTZ 282000Z AUTO 33015G23KT 9SM OVC031 13/07 A3030 RMK SLP264
15:00
M
14 °C 9 mi 2.900 ft 330° 330° 10 - 21 kt METAR CYTZ 281900Z AUTO 33010G21KT 9SM OVC029 14/08 A3028 RMK SLP259
14:00
M
13 °C 9 mi 2.700 ft 320° 320° 15 kt METAR CYTZ 281800Z AUTO 32015KT 310V030 9SM OVC027 13/08 A3028 RMK SLP255
13:00
M
13 °C 9 mi 2.500 ft 330° 330° 11 - 19 kt METAR CYTZ 281700Z AUTO 33011G19KT 300V010 9SM OVC025 13/08 A3026 RMK SLP249
12:45
M
13 °C 9 mi 2.500 ft 350° 350° 6 kt METAR CYTZ 281645Z AUTO 35006KT 320V030 9SM OVC025 13/07 A3026 RMK SLP249
12:10
M
13 °C 9 mi 2.100 ft 350° 350° 7 kt METAR CYTZ 281610Z AUTO 35007KT 310V030 9SM BKN021 OVC026 13/08 A3025 RMK SLP245
12:00
M
13 °C 9 mi 2.100 ft 360° 360° 8 - 17 kt METAR CYTZ 281600Z AUTO 36008G17KT 310V040 9SM -RA BKN021 OVC026 13/09 A3024 RMK SLP243
11:00
M
13 °C 9 mi 2.300 ft 330° 330° 11 - 16 kt METAR CYTZ 281500Z AUTO 33011G16KT 310V020 9SM OVC023 13/09 A3023 RMK SLP238
10:00
M
12 °C 9 mi 1.800 ft 320° 320° 14 - 19 kt METAR CYTZ 281400Z AUTO 32014G19KT 280V010 9SM OVC018 12/09 A3020 RMK SLP228
09:00
M
12 °C 9 mi 1.600 ft 330° 330° 7 - 16 kt METAR CYTZ 281300Z AUTO 33007G16KT 9SM OVC016 12/09 A3016 RMK SLP217
08:00
M
12 °C 9 mi 1.600 ft 330° 330° 7 - 15 kt METAR CYTZ 281200Z AUTO 33007G15KT 280V020 9SM OVC016 12/09 A3014 RMK SLP209
07:35
M
12 °C 9 mi 1.600 ft 350° 350° 6 - 15 kt METAR CYTZ 281135Z AUTO 35006G15KT 290V010 9SM BKN016 OVC086 12/10 A3012 RMK SLP204
07:00
V
12 °C 9 mi 8.100 ft 330° 330° 8 - 17 kt METAR CYTZ 281100Z AUTO 33008G17KT 9SM FEW016 OVC081 12/09 A3011 RMK SLP199
06:00
V
12 °C 9 mi 8.100 ft 320° 320° 11 kt METAR CYTZ 281000Z AUTO 32011KT 9SM FEW018 OVC081 12/10 A3008 RMK SLP189
05:46
V
12 °C 9 mi 8.100 ft 320° 320° 11 - 17 kt METAR CYTZ 280946Z AUTO 32011G17KT 9SM SCT018 OVC081 12/10 A3007 RMK SLP187
05:00
M
12 °C 9 mi 2.000 ft 330° 330° 9 kt METAR CYTZ 280900Z AUTO 33009KT 9SM BKN020 OVC081 12/10 A3006 RMK SLP181
04:34
M
12 °C 9 mi 2.000 ft 330° 330° 8 kt METAR CYTZ 280834Z AUTO 33008KT 9SM BKN020 OVC081 12/10 A3005 RMK SLP178
04:00
V
12 °C 9 mi 8.100 ft 330° 330° 9 - 18 kt METAR CYTZ 280800Z AUTO 33009G18KT 9SM BKN081 12/10 A3003 RMK SLP173
03:00
V
12 °C 9 mi - 320° 320° 10 - 18 kt METAR CYTZ 280700Z AUTO 32010G18KT 9SM CLR 12/10 A3001 RMK SLP167
02:00
V
13 °C 9 mi 8.100 ft 320° 320° 10 - 15 kt METAR CYTZ 280600Z AUTO 32010G15KT 9SM OVC081 13/10 A3000 RMK SLP162
01:00
V
13 °C 9 mi 7.600 ft 320° 320° 11 - 17 kt METAR CYTZ 280500Z AUTO 32011G17KT 9SM OVC076 13/11 A2998 RMK SLP156
00:00
V
13 °C 9 mi 7.600 ft 320° 320° 10 kt METAR CYTZ 280400Z AUTO 32010KT 9SM OVC076 13/11 A2997 RMK SLP151

27 września 2022

Czas Kod Pogoda Temp. Widoczność Sufit Wiatr METAR/SPECI
23:00
V
13 °C 9 mi 8.100 ft 320° 320° 10 kt METAR CYTZ 280300Z AUTO 32010KT 9SM FEW019 SCT060 OVC081 13/11 A2995 RMK SLP143
22:00
V
13 °C 9 mi 5.000 ft 310° 310° 7 kt METAR CYTZ 280200Z AUTO 31007KT 270V340 9SM BKN050 OVC071 13/12 A2993 RMK SLP137
21:17
V
14 °C 9 mi 6.000 ft 310° 310° 8 kt METAR CYTZ 280117Z AUTO 31008KT 9SM FEW027 BKN060 OVC072 14/12 A2991 RMK SLP131
21:00
V
13 °C 9 mi 6.600 ft 310° 310° 9 kt METAR CYTZ 280100Z AUTO 31009KT 9SM -RA FEW047 OVC066 13/12 A2990 RMK SLP129
20:00
V
13 °C 7 mi 4.900 ft 340° 340° 3 kt METAR CYTZ 280000Z AUTO 34003KT 320V040 7SM -RA FEW015 BKN049 OVC066 13/11 A2989 RMK PCPN 1.2MM PAST HR SLP124
19:00
V
12 °C 9 mi 5.000 ft 280° 280° 5 kt METAR CYTZ 272300Z AUTO 28005KT 230V310 9SM -RA SCT042 BKN050 OVC066 12/12 A2986 RMK SLP114
18:02
V
12 °C 9 mi 7.100 ft 290° 290° 6 kt METAR CYTZ 272202Z AUTO 29006KT 240V310 9SM -RA FEW028 OVC071 12/11 A2984 RMK SLP107
18:00
V
12 °C 9 mi 6.600 ft 290° 290° 6 kt METAR CYTZ 272200Z AUTO 29006KT 240V310 9SM FEW028 OVC066 12/11 A2984 RMK SLP107
17:00
V
13 °C 9 mi 5.500 ft 240° 240° 6 kt METAR CYTZ 272100Z AUTO 24006KT 200V340 9SM FEW044 OVC055 13/10 A2982 RMK SLP100
16:51
V
14 °C 9 mi 5.500 ft 320° 320° 7 kt METAR CYTZ 272051Z AUTO 32007KT 280V030 9SM SCT044 OVC055 14/11 A2981 RMK SLP099 DENSITY ALT 300FT
16:30
V
14 °C 9 mi 3.900 ft 330° 330° 8 - 18 kt METAR CYTZ 272030Z AUTO 33008G18KT 9SM -RA FEW030 BKN039 OVC049 14/11 A2981 RMK SLP096 DENSITY ALT 300FT
16:27
V
14 °C 9 mi 3.700 ft 330° 330° 11 - 20 kt METAR CYTZ 272027Z AUTO 33011G20KT 9SM -TSRA SCT030 BKN037 OVC049 14/11 A2981 RMK SLP096 DENSITY ALT 300FT
16:14
V
13 °C 9 mi 3.900 ft 330° 330° 11 - 16 kt METAR CYTZ 272014Z AUTO 33011G16KT 240V030 9SM TS FEW023 SCT030 OVC039 13/11 A2980 RMK SLP095
16:00
V
13 °C 9 mi 4.000 ft 210° 210° 9 - 15 kt METAR CYTZ 272000Z AUTO 21009G15KT 9SM FEW031 BKN040 OVC066 13/11 A2979 RMK SLP091
15:40
V
13 °C 9 mi 6.600 ft 230° 230° 4 kt METAR CYTZ 271940Z AUTO 23004KT 190V290 9SM SCT037 OVC066 13/11 A2978 RMK SLP088 DENSITY ALT 300FT
15:00
V
13 °C 9 mi 8.000 ft 190° 190° 7 kt METAR CYTZ 271900Z AUTO 19007KT 9SM -RA SCT060 OVC080 13/11 A2978 RMK SLP086
14:53
V
13 °C 9 mi 7.900 ft 200° 200° 9 kt METAR CYTZ 271853Z AUTO 20009KT 9SM -RA SCT060 OVC079 13/10 A2977 RMK SLP085 DENSITY ALT 300FT
14:00
V
14 °C 9 mi 8.600 ft 210° 210° 8 - 16 kt METAR CYTZ 271800Z AUTO 21008G16KT 9SM OVC086 14/11 A2976 RMK SLP082 DENSITY ALT 400FT
13:00
V
16 °C 9 mi 7.600 ft 240° 240° 6 kt METAR CYTZ 271700Z AUTO 24006KT 9SM FEW028 OVC076 16/11 A2976 RMK SLP081 DENSITY ALT 600FT
12:00
M
14 °C 9 mi 2.600 ft 250° 250° 6 kt METAR CYTZ 271600Z AUTO 25006KT 230V300 9SM BKN026 BKN036 BKN043 OVC076 14/11 A2975 RMK SLP077 DENSITY ALT 400FT
11:00
V
13 °C 9 mi 7.100 ft 250° 250° 8 kt METAR CYTZ 271500Z AUTO 25008KT 230V310 9SM OVC071 13/11 A2974 RMK SLP075 DENSITY ALT 300FT
10:21
V
12 °C 9 mi 7.100 ft 230° 230° 5 kt METAR CYTZ 271421Z AUTO 23005KT 200V280 9SM OVC071 12/11 A2973 RMK SLP071
10:00
V
12 °C 9 mi 7.100 ft 250° 250° 5 kt METAR CYTZ 271400Z AUTO 25005KT 210V300 9SM -RA OVC071 12/11 A2972 RMK SLP068
09:53
V
12 °C 9 mi 7.100 ft 270° 270° 6 kt METAR CYTZ 271353Z AUTO 27006KT 220V290 9SM -RA OVC071 12/10 A2972 RMK SLP067
09:00
V
12 °C 9 mi 8.100 ft 260° 260° 6 kt METAR CYTZ 271300Z AUTO 26006KT 240V300 9SM BKN081 OVC100 12/10 A2970 RMK SLP062 DENSITY ALT 300FT
08:00
V
12 °C 9 mi 8.600 ft 270° 270° 8 kt METAR CYTZ 271200Z AUTO 27008KT 9SM OVC086 12/10 A2969 RMK SLP057 DENSITY ALT 300FT
07:00
V
11 °C 9 mi 8.600 ft 270° 270° 6 kt METAR CYTZ 271100Z AUTO 27006KT 230V300 9SM OVC086 11/10 A2968 RMK SLP052
Starsze dane

My i osoby trzecie śledzimy twoje zachowanie w internecie na naszej stronie za pomocą plików cookie. Jeśli kontynuujesz, zakładamy, że zgadzasz się z naszą polityką plików cookie. Dowiedz się więcej